Time;durP1;ratioP1;P1;durP2;ratioP2;P2;SDS_P1;SDS_P2;PMS_P1;PMS_P2;Temp;Humidity;BMP_temperature;BMP_pressure;BME280_temperature;BME280_humidity;BME280_pressure;Samples;Min_cycle;Max_cycle;Signal;HPM_P1;HPM_P2
2023/10/09 00:01:46;;;;;;;0.55;0.55;;;;;;;;;;5081841;28;20021;-78
2023/10/09 00:04:16;;;;;;;0.50;0.50;;;;;;;;;;5081418;28;20039;-79
2023/10/09 00:06:42;;;;;;;0.40;0.40;;;;;;;;;;5081096;28;20024;-79
2023/10/09 00:11:56;;;;;;;0.40;0.40;;;;;;;;;;5100996;28;20050;-78
2023/10/09 00:14:23;;;;;;;0.50;0.50;;;;;;;;;;5084190;28;20370;-78
2023/10/09 00:16:55;;;;;;;0.50;0.50;;;;;;;;;;5083727;28;20020;-78
2023/10/09 00:19:32;;;;;;;0.50;0.50;;;;;;;;;;5085010;28;20044;-78
2023/10/09 00:22:04;;;;;;;0.50;0.50;;;;;;;;;;5086164;28;20027;-78
2023/10/09 00:24:32;;;;;;;0.40;0.40;;;;;;;;;;5086954;28;20028;-82
2023/10/09 00:27:19;;;;;;;0.50;0.50;;;;;;;;;;5085394;28;20027;-79
2023/10/09 00:29:45;;;;;;;0.50;0.50;;;;;;;;;;5084359;28;20486;-79
2023/10/09 00:32:22;;;;;;;0.50;0.50;;;;;;;;;;5079243;28;20020;-78
2023/10/09 00:34:50;;;;;;;0.50;0.50;;;;;;;;;;5079665;28;20057;-77
2023/10/09 00:37:17;;;;;;;0.50;0.50;;;;;;;;;;5079220;28;20020;-78
2023/10/09 00:39:43;;;;;;;0.50;0.50;;;;;;;;;;5079175;28;20020;-80
2023/10/09 00:42:14;;;;;;;0.50;0.50;;;;;;;;;;5079638;28;20054;-79
2023/10/09 00:44:41;;;;;;;0.50;0.50;;;;;;;;;;5080572;28;20047;-79
2023/10/09 00:47:21;;;;;;;0.50;0.50;;;;;;;;;;5079994;28;20020;-80
2023/10/09 00:50:08;;;;;;;0.50;0.50;;;;;;;;;;5080269;28;20093;-80
2023/10/09 00:52:50;;;;;;;0.43;0.43;;;;;;;;;;5081231;28;20089;-80
2023/10/09 00:55:21;;;;;;;0.50;0.50;;;;;;;;;;5079710;28;20038;-80
2023/10/09 00:57:57;;;;;;;0.55;0.55;;;;;;;;;;5081864;28;20019;-78
2023/10/09 01:01:08;;;;;;;0.50;0.50;;;;;;;;;;5081850;28;20035;-79
2023/10/09 01:06:14;;;;;;;0.50;0.50;;;;;;;;;;5102263;28;20034;-79
2023/10/09 01:11:14;;;;;;;0.60;0.60;;;;;;;;;;5103422;28;20024;-78
2023/10/09 01:14:26;;;;;;;0.60;0.60;;;;;;;;;;5084617;28;20028;-78
2023/10/09 01:16:31;;;;;;;0.52;0.52;;;;;;;;;;5087653;28;20024;-80
2023/10/09 01:18:57;;;;;;;0.50;0.50;;;;;;;;;;5085802;28;20027;-78
2023/10/09 01:21:26;;;;;;;0.50;0.50;;;;;;;;;;5081619;28;20020;-78
2023/10/09 01:24:03;;;;;;;0.60;0.60;;;;;;;;;;5080396;28;20028;-79
2023/10/09 01:26:34;;;;;;;0.60;0.60;;;;;;;;;;5080583;28;20027;-80
2023/10/09 01:29:00;;;;;;;0.60;0.60;;;;;;;;;;5081180;28;20027;-79
2023/10/09 01:31:26;;;;;;;0.60;0.60;;;;;;;;;;5082018;28;20028;-81
2023/10/09 01:33:59;;;;;;;0.60;0.60;;;;;;;;;;5080659;28;20464;-80
2023/10/09 01:36:31;;;;;;;0.50;0.50;;;;;;;;;;5080982;28;20020;-79
2023/10/09 01:39:23;;;;;;;0.50;0.50;;;;;;;;;;5080738;28;20024;-79
2023/10/09 01:41:49;;;;;;;0.40;0.40;;;;;;;;;;5099620;28;20082;-81
2023/10/09 01:44:16;;;;;;;0.70;0.70;;;;;;;;;;5082817;28;20024;-79
2023/10/09 01:46:45;;;;;;;0.50;0.50;;;;;;;;;;5083082;28;20028;-80
2023/10/09 01:49:20;;;;;;;0.50;0.50;;;;;;;;;;5102949;28;20034;-80
2023/10/09 01:51:48;;;;;;;0.60;0.60;;;;;;;;;;5084611;28;20020;-79
2023/10/09 01:54:33;;;;;;;0.40;0.40;;;;;;;;;;5080874;28;20028;-80
2023/10/09 01:57:05;;;;;;;0.95;0.95;;;;;;;;;;5080012;28;20020;-79
2023/10/09 01:59:31;;;;;;;0.50;0.50;;;;;;;;;;5079586;28;20391;-79
2023/10/09 02:02:00;;;;;;;0.60;0.60;;;;;;;;;;5080253;28;20028;-81
2023/10/09 02:04:26;;;;;;;0.60;0.60;;;;;;;;;;5078708;28;20115;-79
2023/10/09 02:06:52;;;;;;;0.60;0.60;;;;;;;;;;5081955;28;20463;-79
2023/10/09 02:09:26;;;;;;;0.52;0.52;;;;;;;;;;5084000;28;20038;-81
2023/10/09 02:11:52;;;;;;;0.50;0.50;;;;;;;;;;5082539;28;20021;-79
2023/10/09 02:14:21;;;;;;;0.50;0.50;;;;;;;;;;5081611;28;20107;-78
2023/10/09 02:17:06;;;;;;;0.50;0.50;;;;;;;;;;5082730;28;20016;-80
2023/10/09 02:19:35;;;;;;;0.60;0.60;;;;;;;;;;5083311;28;20024;-78
2023/10/09 02:22:13;;;;;;;0.60;0.60;;;;;;;;;;5083888;28;20107;-78
2023/10/09 02:29:59;;;;;;;0.60;0.60;;;;;;;;;;5103502;28;20051;-79
2023/10/09 02:32:28;;;;;;;0.52;0.52;;;;;;;;;;5087443;28;20042;-78
2023/10/09 02:34:54;;;;;;;0.50;0.50;;;;;;;;;;5086632;28;20448;-79
2023/10/09 02:37:24;;;;;;;0.40;0.40;;;;;;;;;;5081839;28;20020;-80
2023/10/09 02:39:52;;;;;;;0.50;0.50;;;;;;;;;;5082029;28;20024;-80
2023/10/09 02:42:28;;;;;;;0.50;0.50;;;;;;;;;;5083075;28;20048;-79
2023/10/09 02:44:55;;;;;;;0.60;0.60;;;;;;;;;;5083173;28;20028;-79
2023/10/09 02:47:29;;;;;;;0.55;0.55;;;;;;;;;;5083287;28;20028;-79
2023/10/09 02:50:00;;;;;;;0.60;0.60;;;;;;;;;;5083674;28;20024;-79
2023/10/09 02:52:32;;;;;;;0.60;0.60;;;;;;;;;;5084344;28;20023;-79
2023/10/09 02:55:13;;;;;;;0.50;0.50;;;;;;;;;;5085250;28;20020;-79
2023/10/09 02:57:41;;;;;;;0.50;0.50;;;;;;;;;;5086317;28;20045;-79
2023/10/09 03:00:29;;;;;;;0.55;0.55;;;;;;;;;;5086420;28;20028;-78
2023/10/09 03:02:58;;;;;;;0.50;0.50;;;;;;;;;;5088756;28;20031;-80
2023/10/09 03:05:27;;;;;;;0.50;0.50;;;;;;;;;;5088974;28;20031;-80
2023/10/09 03:07:54;;;;;;;0.60;0.60;;;;;;;;;;5083534;28;20024;-81
2023/10/09 03:10:22;;;;;;;0.50;0.50;;;;;;;;;;5083204;28;20020;-79
2023/10/09 03:12:52;;;;;;;0.60;0.60;;;;;;;;;;5083963;28;20447;-78
2023/10/09 03:15:20;;;;;;;0.50;0.50;;;;;;;;;;5084496;28;20124;-79
2023/10/09 03:17:48;;;;;;;0.50;0.50;;;;;;;;;;5086342;28;20085;-78
2023/10/09 03:20:14;;;;;;;0.60;0.60;;;;;;;;;;5086789;28;20092;-79
2023/10/09 03:22:40;;;;;;;0.60;0.60;;;;;;;;;;5086399;28;20383;-80
2023/10/09 03:25:16;;;;;;;0.60;0.60;;;;;;;;;;5105166;28;20020;-80
2023/10/09 03:27:45;;;;;;;0.50;0.50;;;;;;;;;;5087650;28;20024;-79
2023/10/09 03:30:22;;;;;;;0.60;0.60;;;;;;;;;;5088026;28;20056;-79
2023/10/09 03:32:51;;;;;;;0.60;0.60;;;;;;;;;;5088371;28;20085;-78
2023/10/09 03:35:26;;;;;;;0.60;0.60;;;;;;;;;;5088174;28;20016;-79
2023/10/09 03:38:12;;;;;;;0.60;0.60;;;;;;;;;;5089017;28;20486;-79
2023/10/09 03:40:46;;;;;;;0.60;0.60;;;;;;;;;;5088953;28;20024;-80
2023/10/09 03:43:13;;;;;;;0.60;0.60;;;;;;;;;;5088602;28;20086;-78
2023/10/09 03:45:45;;;;;;;0.60;0.60;;;;;;;;;;5108143;28;20027;-80
2023/10/09 03:48:31;;;;;;;0.50;0.50;;;;;;;;;;5107555;28;20099;-80
2023/10/09 03:51:20;;;;;;;0.55;0.55;;;;;;;;;;5086959;28;20032;-79
2023/10/09 03:53:47;;;;;;;0.60;0.60;;;;;;;;;;5087537;28;20031;-80
2023/10/09 03:56:15;;;;;;;0.70;0.70;;;;;;;;;;5087296;28;20044;-79
2023/10/09 03:58:46;;;;;;;0.70;0.70;;;;;;;;;;5088308;28;20028;-80
2023/10/09 04:01:52;;;;;;;0.60;0.60;;;;;;;;;;5086867;28;20026;-79
2023/10/09 04:04:13;;;;;;;0.80;0.70;;;;;;;;;;5102868;28;20036;-80
2023/10/09 04:06:39;;;;;;;0.57;0.57;;;;;;;;;;5091780;28;20024;-82
2023/10/09 04:11:56;;;;;;;0.60;0.60;;;;;;;;;;5103752;28;20567;-79
2023/10/09 04:14:35;;;;;;;0.60;0.60;;;;;;;;;;5085807;28;20020;-80
2023/10/09 04:20:25;;;;;;;0.50;0.50;;;;;;;;;;5101691;28;20074;-79
2023/10/09 04:22:51;;;;;;;0.50;0.50;;;;;;;;;;5102011;28;20052;-80
2023/10/09 04:25:28;;;;;;;0.60;0.60;;;;;;;;;;5083864;28;20020;-79
2023/10/09 04:30:40;;;;;;;0.60;0.60;;;;;;;;;;5101340;28;20400;-79
2023/10/09 04:33:20;;;;;;;0.60;0.60;;;;;;;;;;5084089;28;20024;-81
2023/10/09 04:36:16;;;;;;;0.60;0.60;;;;;;;;;;5083433;28;20020;-80
2023/10/09 04:38:34;;;;;;;0.60;0.60;;;;;;;;;;5101554;28;20387;-79
2023/10/09 04:41:05;;;;;;;0.55;0.55;;;;;;;;;;5083018;28;20020;-78
2023/10/09 04:43:32;;;;;;;0.63;0.60;;;;;;;;;;5081416;28;20136;-78
2023/10/09 04:46:07;;;;;;;0.70;0.70;;;;;;;;;;5081210;28;20437;-78
2023/10/09 04:48:37;;;;;;;0.60;0.60;;;;;;;;;;5081529;28;20043;-78
2023/10/09 04:51:31;;;;;;;0.60;0.60;;;;;;;;;;5083256;28;20050;-79
2023/10/09 04:54:12;;;;;;;0.60;0.60;;;;;;;;;;5082856;28;20024;-78
2023/10/09 04:56:54;;;;;;;0.60;0.60;;;;;;;;;;5082785;28;20447;-79
2023/10/09 04:59:24;;;;;;;0.60;0.60;;;;;;;;;;5083468;28;20360;-80
2023/10/09 05:01:57;;;;;;;0.65;0.65;;;;;;;;;;5102709;28;20016;-79
2023/10/09 05:04:42;;;;;;;0.70;0.70;;;;;;;;;;5085289;28;20119;-81
2023/10/09 05:07:24;;;;;;;0.60;0.60;;;;;;;;;;5082728;28;20016;-79
2023/10/09 05:10:06;;;;;;;0.60;0.60;;;;;;;;;;5081717;28;20028;-79
2023/10/09 05:12:32;;;;;;;0.60;0.60;;;;;;;;;;5081740;28;20375;-80
2023/10/09 05:15:13;;;;;;;0.82;0.70;;;;;;;;;;5084069;28;20025;-80
2023/10/09 05:17:39;;;;;;;0.60;0.60;;;;;;;;;;5084771;28;20414;-79
2023/10/09 05:22:58;;;;;;;0.60;0.60;;;;;;;;;;5100006;28;20067;-80
2023/10/09 05:25:53;;;;;;;0.60;0.60;;;;;;;;;;5084074;28;20025;-81
2023/10/09 05:28:25;;;;;;;0.65;0.65;;;;;;;;;;5083811;28;20039;-79
2023/10/09 05:31:06;;;;;;;0.55;0.55;;;;;;;;;;5084351;28;20024;-79
2023/10/09 05:33:33;;;;;;;0.80;0.70;;;;;;;;;;5085711;28;20090;-79
2023/10/09 05:38:58;;;;;;;0.60;0.60;;;;;;;;;;5104887;28;20039;-82
2023/10/09 05:41:47;;;;;;;0.60;0.60;;;;;;;;;;5087438;28;20017;-80
2023/10/09 05:49:46;;;;;;;0.70;0.70;;;;;;;;;;5105849;28;20035;-82
2023/10/09 06:06:15;;;;;;;0.60;0.60;;;;;;;;;;5108738;28;20039;-81
2023/10/09 06:14:04;;;;;;;0.60;0.60;;;;;;;;;;5104787;28;20489;-81
2023/10/09 06:19:43;;;;;;;0.60;0.60;;;;;;;;;;5103062;28;20035;-81
2023/10/09 06:24:42;;;;;;;0.60;0.60;;;;;;;;;;5102202;28;20040;-80
2023/10/09 06:29:42;;;;;;;0.55;0.55;;;;;;;;;;5100843;28;20438;-79
2023/10/09 06:34:51;;;;;;;0.50;0.50;;;;;;;;;;5101996;28;20070;-80
2023/10/09 06:37:19;;;;;;;0.60;0.60;;;;;;;;;;5086032;28;20056;-79
2023/10/09 06:41:01;;;;;;;0.68;0.68;;;;;;;;;;5085556;28;20024;-79
2023/10/09 06:45:16;;;;;;;0.60;0.60;;;;;;;;;;5102299;28;20054;-78
2023/10/09 06:47:53;;;;;;;0.57;0.57;;;;;;;;;;5084994;28;20036;-78
2023/10/09 06:58:41;;;;;;;0.60;0.60;;;;;;;;;;5104035;28;20031;-79
2023/10/09 07:01:25;;;;;;;0.55;0.55;;;;;;;;;;5085535;28;20020;-79
2023/10/09 07:03:54;;;;;;;0.52;0.52;;;;;;;;;;5086410;28;20032;-79
2023/10/09 07:06:24;;;;;;;0.60;0.60;;;;;;;;;;5084433;28;20025;-80
2023/10/09 07:17:44;;;;;;;0.70;0.70;;;;;;;;;;5106079;28;20657;-79
2023/10/09 07:24:56;;;;;;;0.47;0.47;;;;;;;;;;5106604;28;20410;-81
2023/10/09 07:27:51;;;;;;;0.60;0.60;;;;;;;;;;5088319;28;20028;-80
2023/10/09 07:38:14;;;;;;;0.60;0.60;;;;;;;;;;5103132;28;20039;-82
2023/10/09 07:40:56;;;;;;;0.60;0.60;;;;;;;;;;5083465;28;20023;-80
2023/10/09 07:43:35;;;;;;;0.60;0.60;;;;;;;;;;5084566;28;20044;-80
2023/10/09 07:48:38;;;;;;;0.57;0.57;;;;;;;;;;5103959;28;20115;-81
2023/10/09 07:51:05;;;;;;;0.55;0.55;;;;;;;;;;5086737;28;20020;-80
2023/10/09 07:53:43;;;;;;;0.60;0.60;;;;;;;;;;5085732;28;20058;-80
2023/10/09 07:56:09;;;;;;;0.63;0.63;;;;;;;;;;5082091;28;20031;-81
2023/10/09 07:58:46;;;;;;;0.60;0.60;;;;;;;;;;5063277;28;20051;-80
2023/10/09 08:01:16;;;;;;;0.50;0.50;;;;;;;;;;5077777;28;20437;-80
2023/10/09 08:03:57;;;;;;;0.50;0.50;;;;;;;;;;5059945;28;20060;-81
2023/10/09 08:06:38;;;;;;;0.50;0.50;;;;;;;;;;5059810;28;20024;-82
2023/10/09 08:11:59;;;;;;;0.60;0.60;;;;;;;;;;5079182;28;20036;-79
2023/10/09 08:20:11;;;;;;;0.60;0.60;;;;;;;;;;5076777;28;20037;-80
2023/10/09 08:22:50;;;;;;;0.60;0.60;;;;;;;;;;5057513;28;20446;-80
2023/10/09 08:33:43;;;;;;;0.55;0.55;;;;;;;;;;5017928;28;20069;-79
2023/10/09 08:36:09;;;;;;;0.50;0.50;;;;;;;;;;5019788;28;20059;-81
2023/10/09 08:38:35;;;;;;;0.60;0.60;;;;;;;;;;5004637;28;20030;-80
2023/10/09 08:41:17;;;;;;;0.60;0.60;;;;;;;;;;4997613;28;20034;-79
2023/10/09 08:43:51;;;;;;;0.50;0.50;;;;;;;;;;5014722;28;20120;-79
2023/10/09 08:46:20;;;;;;;0.50;0.50;;;;;;;;;;4997306;28;20052;-79
2023/10/09 08:48:47;;;;;;;0.50;0.50;;;;;;;;;;4998164;28;20014;-79
2023/10/09 08:51:14;;;;;;;0.60;0.60;;;;;;;;;;4996602;28;20045;-78
2023/10/09 08:53:45;;;;;;;0.60;0.60;;;;;;;;;;4997141;28;20132;-76
2023/10/09 08:56:12;;;;;;;0.60;0.60;;;;;;;;;;4997959;28;20053;-78
2023/10/09 08:58:38;;;;;;;0.50;0.50;;;;;;;;;;4996400;28;20034;-77
2023/10/09 09:01:04;;;;;;;0.50;0.50;;;;;;;;;;5013122;28;20535;-76
2023/10/09 09:03:44;;;;;;;0.50;0.50;;;;;;;;;;5036018;28;20086;-77
2023/10/09 09:06:11;;;;;;;0.60;0.60;;;;;;;;;;5058051;28;20383;-78
2023/10/09 09:08:37;;;;;;;0.50;0.50;;;;;;;;;;5058299;28;20055;-79
2023/10/09 09:13:50;;;;;;;0.40;0.40;;;;;;;;;;5076548;28;20036;-78
2023/10/09 09:16:17;;;;;;;0.70;0.70;;;;;;;;;;5059418;28;20035;-78
2023/10/09 09:19:00;;;;;;;0.50;0.50;;;;;;;;;;5060856;28;20021;-81
2023/10/09 09:21:27;;;;;;;0.50;0.50;;;;;;;;;;5061403;28;20091;-79
2023/10/09 09:24:06;;;;;;;0.50;0.50;;;;;;;;;;5061569;28;20020;-79
2023/10/09 09:26:44;;;;;;;0.50;0.50;;;;;;;;;;5060385;28;20025;-79
2023/10/09 09:29:11;;;;;;;0.50;0.50;;;;;;;;;;5063180;28;20491;-77
2023/10/09 09:31:41;;;;;;;0.50;0.50;;;;;;;;;;5063159;28;20029;-80
2023/10/09 09:34:17;;;;;;;0.50;0.50;;;;;;;;;;5063358;28;20021;-78
2023/10/09 09:36:53;;;;;;;0.50;0.50;;;;;;;;;;5063482;28;20480;-78
2023/10/09 09:39:26;;;;;;;0.50;0.50;;;;;;;;;;5063466;28;20050;-79
2023/10/09 09:41:54;;;;;;;0.50;0.50;;;;;;;;;;5065350;28;20510;-78
2023/10/09 09:44:26;;;;;;;0.50;0.50;;;;;;;;;;5069767;28;20020;-79
2023/10/09 09:46:55;;;;;;;0.47;0.47;;;;;;;;;;5069451;28;20020;-78
2023/10/09 09:49:21;;;;;;;0.40;0.40;;;;;;;;;;5086305;28;20422;-79
2023/10/09 09:51:48;;;;;;;0.50;0.50;;;;;;;;;;5075091;28;20020;-79
2023/10/09 09:54:21;;;;;;;0.50;0.50;;;;;;;;;;5066708;28;20024;-76
2023/10/09 09:56:52;;;;;;;0.50;0.50;;;;;;;;;;5079615;28;20033;-79
2023/10/09 09:59:21;;;;;;;0.50;0.50;;;;;;;;;;5069684;28;20023;-78
2023/10/09 10:01:57;;;;;;;0.43;0.43;;;;;;;;;;5070961;28;20023;-79
2023/10/09 10:04:24;;;;;;;0.50;0.50;;;;;;;;;;5079899;28;20042;-77
2023/10/09 10:06:54;;;;;;;0.50;0.50;;;;;;;;;;5079155;28;20027;-76
2023/10/09 10:09:48;;;;;;;0.40;0.40;;;;;;;;;;5089577;28;20079;-79
2023/10/09 10:12:17;;;;;;;0.40;0.40;;;;;;;;;;5068227;28;20020;-79
2023/10/09 10:15:07;;;;;;;0.50;0.50;;;;;;;;;;5079602;28;20035;-79
2023/10/09 10:17:53;;;;;;;0.40;0.40;;;;;;;;;;5082046;28;20119;-79
2023/10/09 10:22:48;;;;;;;0.40;0.40;;;;;;;;;;5100050;28;20024;-79
2023/10/09 10:25:32;;;;;;;0.40;0.40;;;;;;;;;;5076308;28;20043;-78
2023/10/09 10:28:28;;;;;;;0.40;0.40;;;;;;;;;;5092997;28;20107;-79
2023/10/09 10:30:54;;;;;;;0.40;0.40;;;;;;;;;;5083970;28;20059;-78
2023/10/09 10:33:22;;;;;;;0.40;0.40;;;;;;;;;;5085348;28;20024;-80
2023/10/09 10:38:25;;;;;;;0.40;0.40;;;;;;;;;;5097922;28;20031;-79
2023/10/09 10:40:57;;;;;;;0.40;0.40;;;;;;;;;;5068754;28;20023;-78
2023/10/09 10:43:31;;;;;;;0.40;0.40;;;;;;;;;;5076152;28;20040;-79
2023/10/09 10:46:24;;;;;;;0.50;0.50;;;;;;;;;;5065615;28;20105;-78
2023/10/09 10:49:00;;;;;;;0.50;0.50;;;;;;;;;;5088694;28;20024;-78
2023/10/09 10:51:37;;;;;;;0.40;0.40;;;;;;;;;;5071300;28;20065;-78
2023/10/09 10:56:49;;;;;;;0.40;0.40;;;;;;;;;;5100170;28;20082;-78
2023/10/09 10:59:22;;;;;;;0.40;0.40;;;;;;;;;;5074936;28;20062;-77
2023/10/09 11:04:38;;;;;;;0.40;0.40;;;;;;;;;;5097716;28;20036;-78
2023/10/09 11:07:24;;;;;;;0.40;0.40;;;;;;;;;;5067385;28;20077;-78
2023/10/09 11:10:10;;;;;;;0.40;0.40;;;;;;;;;;5070858;28;20077;-79
2023/10/09 11:12:42;;;;;;;0.40;0.40;;;;;;;;;;5058583;28;20028;-77
2023/10/09 11:15:37;;;;;;;0.40;0.40;;;;;;;;;;5063633;28;20020;-78
2023/10/09 11:21:40;;;;;;;0.30;0.30;;;;;;;;;;5097283;28;20078;-77
2023/10/09 11:26:27;;;;;;;0.40;0.40;;;;;;;;;;5079944;28;20090;-79
2023/10/09 11:29:23;;;;;;;0.40;0.40;;;;;;;;;;5073728;28;20027;-77
2023/10/09 11:31:59;;;;;;;0.40;0.40;;;;;;;;;;5068204;28;20081;-78
2023/10/09 11:34:29;;;;;;;0.40;0.40;;;;;;;;;;5060524;28;20020;-79
2023/10/09 11:36:59;;;;;;;0.30;0.30;;;;;;;;;;5057297;28;20023;-78
2023/10/09 11:39:37;;;;;;;0.30;0.30;;;;;;;;;;5064287;28;20051;-78
2023/10/09 11:42:07;;;;;;;0.30;0.30;;;;;;;;;;5063030;28;20139;-79
2023/10/09 11:44:40;;;;;;;0.30;0.30;;;;;;;;;;5090754;28;20034;-77
2023/10/09 11:52:56;;;;;;;0.38;0.38;;;;;;;;;;5091088;28;20048;-80
2023/10/09 11:55:25;;;;;;;0.30;0.30;;;;;;;;;;5082430;28;20467;-81
2023/10/09 11:57:51;;;;;;;0.30;0.30;;;;;;;;;;5082600;28;20077;-78
2023/10/09 12:00:29;;;;;;;0.38;0.38;;;;;;;;;;5071526;28;20375;-78
2023/10/09 12:02:56;;;;;;;0.30;0.30;;;;;;;;;;5057308;28;20016;-80
2023/10/09 12:05:23;;;;;;;0.30;0.30;;;;;;;;;;5064093;28;20379;-76
2023/10/09 12:07:54;;;;;;;0.30;0.30;;;;;;;;;;5064727;28;20032;-80
2023/10/09 12:10:25;;;;;;;0.20;0.20;;;;;;;;;;5071887;28;20111;-79
2023/10/09 12:12:57;;;;;;;0.30;0.30;;;;;;;;;;5059211;28;20387;-78
2023/10/09 12:15:23;;;;;;;;;;;;;;;;;;5068584;28;20016;-77
2023/10/09 12:17:53;;;;;;;0.30;0.30;;;;;;;;;;5067432;28;19915;-78
2023/10/09 12:20:32;;;;;;;0.30;0.30;;;;;;;;;;5060315;28;20021;-79
2023/10/09 12:23:05;;;;;;;0.30;0.30;;;;;;;;;;5058079;28;20036;-79
2023/10/09 12:25:32;;;;;;;0.30;0.30;;;;;;;;;;5065019;28;20024;-78
2023/10/09 12:28:02;;;;;;;0.30;0.30;;;;;;;;;;5063034;28;20032;-79
2023/10/09 12:30:29;;;;;;;0.30;0.30;;;;;;;;;;5072163;28;20429;-80
2023/10/09 12:32:57;;;;;;;0.30;0.30;;;;;;;;;;5059625;28;20069;-80
2023/10/09 12:35:28;;;;;;;0.30;0.30;;;665.70;1664.00;;;;;;5067948;28;20525;-79
2023/10/09 12:37:54;;;;;;;0.30;0.30;;;665.80;1715.20;;;;;;5085486;28;20471;-78
2023/10/09 12:40:29;;;;;;;0.20;0.20;;;666.00;1715.20;;;;;;5077789;28;20359;-77
2023/10/09 12:42:55;;;;;;;0.30;0.30;;;666.00;1689.60;;;;;;5075550;28;20055;-78
2023/10/09 12:45:32;;;;;;;0.20;0.20;;;665.90;1689.60;;;;;;5068185;28;20361;-81
2023/10/09 12:48:08;;;;;;;0.30;0.30;;;666.00;1689.60;;;;;;5068044;28;20111;-77
2023/10/09 12:50:35;;;;;;;0.20;0.20;;;665.90;1689.60;;;;;;5058646;28;20035;-79
2023/10/09 12:53:10;;;;;;;0.20;0.20;;;666.30;1689.60;;;;;;5070935;28;20017;-77
2023/10/09 12:55:42;;;;;;;0.30;0.30;;;666.00;1715.20;;;;;;5049271;28;20035;-77
2023/10/09 12:58:14;;;;;;;0.30;0.30;;;666.20;1715.20;;;;;;5061434;28;20078;-78
2023/10/09 13:00:44;;;;;;;0.20;0.20;;;666.00;1715.20;;;;;;5072007;28;20418;-78
2023/10/09 13:03:17;;;;;;;0.20;0.20;;;666.00;1715.20;;;;;;5078771;28;20356;-78
2023/10/09 13:05:56;;;;;;;0.20;0.20;;;665.90;1740.80;;;;;;5064944;28;20032;-79
2023/10/09 13:08:31;;;;;;;0.20;0.20;;;665.90;1715.20;;;;;;5071688;28;20093;-79
2023/10/09 13:11:04;;;;;;;0.20;0.20;;;666.30;1689.60;;;;;;5059732;28;20016;-77
2023/10/09 13:13:50;;;;;;;0.20;0.20;;;665.90;1715.20;;;;;;5084997;28;20028;-78
2023/10/09 13:16:25;;;;;;;0.20;0.20;;;665.60;1689.60;;;;;;5055590;28;20028;-79
2023/10/09 13:18:56;;;;;;;0.20;0.20;;;665.70;1715.20;;;;;;5055842;28;20063;-79
2023/10/09 13:21:26;;;;;;;0.20;0.20;;;665.60;1689.60;;;;;;5055604;28;20025;-79
2023/10/09 13:23:57;;;;;;;0.28;0.28;;;665.70;1715.20;;;;;;5055089;28;20029;-79
2023/10/09 13:26:35;;;;;;;0.20;0.20;;;665.70;1715.20;;;;;;5055696;28;20449;-78
2023/10/09 13:29:03;;;;;;;0.30;0.30;;;665.60;1715.20;;;;;;5055943;28;20541;-77
2023/10/09 13:31:32;;;;;;;0.20;0.20;;;665.70;1715.20;;;;;;5055646;28;20111;-79
2023/10/09 13:33:59;;;;;;;0.20;0.20;;;665.70;1689.60;;;;;;5056197;28;20476;-81
2023/10/09 13:36:31;;;;;;;0.20;0.20;;;665.70;1715.20;;;;;;5056222;28;20079;-81
2023/10/09 13:39:01;;;;;;;0.30;0.30;;;665.70;1715.20;;;;;;5055776;28;20077;-79
2023/10/09 13:41:29;;;;;;;0.50;0.50;;;665.80;1715.20;;;;;;5055362;28;20025;-79
2023/10/09 13:43:56;;;;;;;0.30;0.30;;;665.70;1689.60;;;;;;5055754;28;20025;-79
2023/10/09 13:46:23;;;;;;;0.30;0.30;;;665.60;1689.60;;;;;;5073782;28;20447;-78
2023/10/09 13:48:49;;;;;;;0.20;0.20;;;665.60;1715.20;;;;;;5055307;28;20081;-81
2023/10/09 13:51:18;;;;;;;0.30;0.30;;;640.70;1689.60;;;;;;5055632;28;20035;-80
2023/10/09 13:53:48;;;;;;;0.20;0.20;;;640.70;1689.60;;;;;;5055787;28;20028;-80
2023/10/09 13:56:18;;;;;;;0.20;0.20;;;640.50;1689.60;;;;;;5052232;28;20491;-80
2023/10/09 13:58:54;;;;;;;0.30;0.30;;;640.50;1689.60;;;;;;5055540;28;20036;-83
2023/10/09 14:01:27;;;;;;;0.30;0.30;;;640.40;1715.20;;;;;;5073309;28;20024;-81
2023/10/09 14:04:00;;;;;;;0.30;0.30;;;640.20;1715.20;;;;;;5058380;28;20051;-82
2023/10/09 14:06:32;;;;;;;0.20;0.20;;;640.00;1715.20;;;;;;5059090;28;20042;-82
2023/10/09 14:09:07;;;;;;;0.20;0.20;;;640.00;1740.80;;;;;;5058617;28;20031;-82
2023/10/09 14:11:37;;;;;;;0.20;0.20;;;640.00;1740.80;;;;;;5058975;28;20119;-79
2023/10/09 14:14:09;;;;;;;0.30;0.30;;;615.30;1740.80;;;;;;5058905;28;20119;-82
2023/10/09 14:16:36;;;;;;;0.20;0.20;;;615.20;1740.80;;;;;;5059159;28;20055;-81
2023/10/09 14:19:07;;;;;;;0.30;0.30;;;615.20;1740.80;;;;;;5059538;28;20068;-81
2023/10/09 14:21:37;;;;;;;0.30;0.30;;;615.10;1766.40;;;;;;5077138;28;20078;-80
2023/10/09 14:24:15;;;;;;;0.30;0.30;;;615.00;1766.40;;;;;;5058826;28;20039;-79
2023/10/09 14:26:42;;;;;;;0.30;0.30;;;614.90;1766.40;;;;;;5059856;28;20024;-82
2023/10/09 14:29:08;;;;;;;0.30;0.30;;;614.80;1792.00;;;;;;5085660;28;20058;-79
2023/10/09 14:31:38;;;;;;;0.30;0.30;;;614.80;1792.00;;;;;;5049965;28;20036;-78
2023/10/09 14:34:08;;;;;;;0.30;0.30;;;614.70;1792.00;;;;;;5065351;28;20029;-82
2023/10/09 14:36:35;;;;;;;0.30;0.30;;;614.60;1792.00;;;;;;5065858;28;20043;-79
2023/10/09 14:39:04;;;;;;;0.30;0.30;;;614.60;1792.00;;;;;;5083672;28;20025;-79
2023/10/09 14:41:33;;;;;;;0.40;0.40;;;614.60;1817.60;;;;;;5082203;28;20021;-79
2023/10/09 14:43:59;;;;;;;0.30;0.30;;;614.50;1843.20;;;;;;5076710;28;20071;-80
2023/10/09 14:46:25;;;;;;;0.30;0.30;;;614.50;1817.60;;;;;;5058686;28;20461;-80
2023/10/09 14:48:55;;;;;;;0.30;0.30;;;589.70;1817.60;;;;;;5058038;28;20033;-80
2023/10/09 14:51:27;;;;;;;0.40;0.40;;;589.60;1817.60;;;;;;5075498;28;20024;-81
2023/10/09 14:53:57;;;;;;;0.30;0.30;;;589.60;1843.20;;;;;;5058189;28;20028;-80
2023/10/09 14:56:29;;;;;;;0.30;0.30;;;589.30;1843.20;;;;;;5057945;28;20024;-79
2023/10/09 14:58:59;;;;;;;0.30;0.30;;;589.50;1843.20;;;;;;5057727;28;20031;-80
2023/10/09 15:01:28;;;;;;;0.30;0.30;;;589.40;1843.20;;;;;;5075837;28;20064;-81
2023/10/09 15:03:59;;;;;;;0.30;0.30;;;589.40;1843.20;;;;;;5057901;28;20036;-79
2023/10/09 15:06:27;;;;;;;0.30;0.30;;;589.30;1868.80;;;;;;5057658;28;20028;-83
2023/10/09 15:08:55;;;;;;;0.30;0.30;;;589.20;1868.80;;;;;;5057309;28;20025;-77
2023/10/09 15:11:26;;;;;;;0.30;0.30;;;589.20;1843.20;;;;;;5057415;28;20036;-80
2023/10/09 15:13:53;;;;;;;0.30;0.30;;;589.10;1843.20;;;;;;5057950;28;20029;-81
2023/10/09 15:16:21;;;;;;;0.30;0.30;;;589.10;1843.20;;;;;;5075343;28;20483;-80
2023/10/09 15:18:52;;;;;;;0.30;0.30;;;589.00;1868.80;;;;;;5057283;28;20047;-81
2023/10/09 15:21:22;;;;;;;0.30;0.30;;;588.90;1868.80;;;;;;5058603;28;20039;-79
2023/10/09 15:23:54;;;;;;;0.30;0.30;;;588.90;1868.80;;;;;;5077486;28;20028;-79
2023/10/09 15:26:20;;;;;;;0.30;0.30;;;588.80;1868.80;;;;;;5077298;28;20035;-79
2023/10/09 15:28:46;;;;;;;0.30;0.30;;;564.10;1894.40;;;;;;5057221;28;20056;-79
2023/10/09 15:31:13;;;;;;;0.30;0.30;;;588.80;1894.40;;;;;;5075592;28;20495;-82
2023/10/09 15:33:39;;;;;;;0.30;0.30;;;564.10;1894.40;;;;;;5074886;28;20107;-80
2023/10/09 15:36:25;;;;;;;0.30;0.30;;;564.00;1894.40;;;;;;5057213;28;20028;-80
2023/10/09 15:38:51;;;;;;;0.30;0.30;;;563.90;1894.40;;;;;;5057312;28;20059;-81
2023/10/09 15:41:19;;;;;;;0.30;0.30;;;563.80;1894.40;;;;;;5056995;28;20063;-77
2023/10/09 15:43:45;;;;;;;0.45;0.45;;;563.80;1894.40;;;;;;5057206;28;20419;-80
2023/10/09 15:46:16;;;;;;;0.30;0.30;;;563.70;1894.40;;;;;;5074709;28;20119;-80
2023/10/09 15:48:43;;;;;;;0.30;0.30;;;563.70;1920.00;;;;;;5057247;28;20115;-80
2023/10/09 15:51:14;;;;;;;0.30;0.30;;;563.60;1920.00;;;;;;5056968;28;20078;-79
2023/10/09 15:53:45;;;;;;;0.30;0.30;;;563.60;1945.60;;;;;;5056724;28;20035;-78
2023/10/09 15:56:12;;;;;;;0.30;0.30;;;563.40;1945.60;;;;;;5075262;28;20111;-81
2023/10/09 15:58:42;;;;;;;0.32;0.32;;;563.30;1945.60;;;;;;5056934;28;20024;-78
2023/10/09 16:01:19;;;;;;;0.68;0.68;;;563.30;1971.20;;;;;;5057047;28;20056;-79
2023/10/09 16:03:50;;;;;;;0.30;0.30;;;563.20;1971.20;;;;;;5057322;28;20037;-78
2023/10/09 16:06:17;;;;;;;0.40;0.40;;;563.20;1971.20;;;;;;5074941;28;20103;-78
2023/10/09 16:08:45;;;;;;;0.30;0.30;;;563.20;1945.60;;;;;;5056822;28;20046;-77
2023/10/09 16:11:15;;;;;;;0.30;0.30;;;563.20;1945.60;;;;;;5056862;28;20085;-79
2023/10/09 16:13:41;;;;;;;0.47;0.47;;;563.20;1971.20;;;;;;5057229;28;20032;-81
2023/10/09 16:16:08;;;;;;;0.30;0.30;;;538.50;1945.60;;;;;;5056267;28;20478;-77
2023/10/09 16:18:35;;;;;;;0.30;0.30;;;538.40;1945.60;;;;;;5056808;28;20055;-82
2023/10/09 16:21:04;;;;;;;0.43;0.43;;;538.30;1971.20;;;;;;5056316;28;20024;-78
2023/10/09 16:23:33;;;;;;;0.40;0.40;;;;;;;;;;5056422;28;20076;-81
2023/10/09 16:26:00;;;;;;;0.40;0.40;;;;;;;;;;5055805;28;20578;-80
2023/10/09 16:28:29;;;;;;;0.50;0.50;;;;;;;;;;5055941;28;20064;-81
2023/10/09 16:30:56;;;;;;;0.40;0.40;;;;;;;;;;5074258;28;20031;-79
2023/10/09 16:33:24;;;;;;;0.40;0.40;;;;;;;;;;5079891;28;20035;-82
2023/10/09 16:35:53;;;;;;;0.30;0.30;;;;;;;;;;5064927;28;20112;-80
2023/10/09 16:38:22;;;;;;;0.40;0.40;;;;;;;;;;5070104;28;20020;-78
2023/10/09 16:40:54;;;;;;;0.70;0.70;;;;;;;;;;5059219;28;20040;-80
2023/10/09 16:43:22;;;;;;;0.40;0.40;;;;;;;;;;5069259;28;20053;-78
2023/10/09 16:45:50;;;;;;;0.40;0.40;;;;;;;;;;5066268;28;20105;-79
2023/10/09 16:48:16;;;;;;;0.40;0.40;;;;;;;;;;5076716;28;20456;-79